Shinsei — JD3674 — position and weather

sailwx.info

Track history (hours):
 
Tides and Currents Weather Stations Pressure Air Temp Water Temp Dewpoint Dewpoint Depression Visibility Wind Speed Wind Dir Waves Ship Positions

Shinsei

Last reported at 2017-Dec-11 12:06 UTC. Time now 2017-Dec-14 00:15 UTC.
Position N 34°26' E 134°26'.

Length 74 m; draft 5 m.

Type: Cargo ship. MMSI: 431005241.

Date/timePositionNaut miles runAvg speedWind from/ knotsBaromVisibWave heightAir tempDewpointWater temp
2017-Dec-11 12:06N 34°26' E 134°26'111.7
2017-Dec-11 12:00N 34°27' E 134°27'611.7
2017-Dec-11 11:30N 34°29' E 134°34'611.3
2017-Dec-11 11:00N 34°31' E 134°40'510.9
2017-Dec-11 10:30N 34°33' E 134°46'510.9
2017-Dec-11 10:00N 34°35' E 134°52'5 9.9
2017-Dec-11 09:31N 34°37' E 134°58'5 9.8
2017-Dec-11 09:01N 34°36' E 135°04'611.3
2017-Dec-11 08:31N 34°35' E 135°10'611.3
2017-Dec-11 08:00N 34°34' E 135°17'511.0
2017-Dec-11 07:31N 34°32' E 135°23'0 0.9
2017-Dec-11 07:00N 34°31' E 135°24'0 0.0
2017-Dec-11 06:30N 34°31' E 135°24'0 0.0
2017-Dec-11 06:00N 34°31' E 135°24'0 0.0
2017-Dec-11 05:31N 34°31' E 135°24'0 0.0
2017-Dec-11 05:00N 34°31' E 135°24'0 0.0
2017-Dec-11 04:31N 34°31' E 135°24'0 0.0
2017-Dec-11 04:00N 34°31' E 135°24'0 0.0
2017-Dec-11 03:31N 34°31' E 135°24'0 0.0
2017-Dec-11 03:01N 34°31' E 135°24'0 0.0
2017-Dec-11 02:30N 34°31' E 135°24'0 0.0
2017-Dec-11 02:00N 34°31' E 135°24'0 0.0
2017-Dec-11 01:31N 34°31' E 135°24'0 0.0
2017-Dec-11 01:01N 34°31' E 135°24'0 0.0
2017-Dec-11 00:30N 34°31' E 135°24'0 0.0
2017-Dec-11 00:00N 34°31' E 135°24'0 0.0
2017-Dec-10 23:30N 34°31' E 135°24'0 0.0
2017-Dec-10 23:00N 34°31' E 135°24'0 0.0
2017-Dec-10 22:30N 34°31' E 135°24'0 0.0
2017-Dec-10 22:00N 34°31' E 135°24'0 0.0
2017-Dec-10 21:31N 34°31' E 135°24'0 0.0
2017-Dec-10 21:01N 34°31' E 135°24'0 0.0
2017-Dec-10 20:31N 34°31' E 135°24'0 0.0
2017-Dec-10 20:01N 34°31' E 135°24'0 0.0
2017-Dec-10 19:31N 34°31' E 135°24'0 0.0
2017-Dec-10 19:00N 34°31' E 135°24'0 0.0
2017-Dec-10 18:30N 34°31' E 135°24'0 0.0
2017-Dec-10 18:01N 34°31' E 135°24'0 0.0
2017-Dec-10 17:30N 34°31' E 135°24'0 0.0
2017-Dec-10 17:00N 34°31' E 135°24'0 0.0
2017-Dec-10 16:31N 34°31' E 135°24'0 0.0
2017-Dec-10 16:00N 34°31' E 135°24'0 0.0
2017-Dec-10 15:30N 34°31' E 135°24'0 0.0
2017-Dec-10 15:00N 34°31' E 135°24'0 0.0
2017-Dec-10 14:30N 34°31' E 135°24'0 0.0
2017-Dec-10 14:00N 34°31' E 135°24'0 0.0
2017-Dec-10 13:30N 34°31' E 135°24'0 0.0
2017-Dec-10 13:00N 34°31' E 135°24'0 0.1
2017-Dec-10 12:31N 34°31' E 135°24'3 5.5
2017-Dec-10 12:00N 34°32' E 135°20'612.7
2017-Dec-10 11:30N 34°28' E 135°14'612.3
2017-Dec-10 11:00N 34°24' E 135°08'612.2
2017-Dec-10 10:30N 34°19' E 135°04'510.7
2017-Dec-10 10:00N 34°14' E 135°03'612.6
2017-Dec-10 09:30N 34°07' E 135°02'712.8
2017-Dec-10 09:00N 34°01' E 135°03'16410.3
2017-Dec-09 17:11N 34°34' E 138°16'1910.5
2017-Dec-09 15:22N 34°36' E 138°39'4 9.8
2017-Dec-09 14:57N 34°36' E 138°44'5 9.6
2017-Dec-09 14:27N 34°35' E 138°50'4 9.1
2017-Dec-09 14:00N 34°35' E 138°55'810.7
2017-Dec-09 13:17N 34°40' E 139°02'812.1
2017-Dec-09 12:37N 34°47' E 139°08'111.6
2017-Dec-09 12:29N 34°48' E 139°09'1112.2
2017-Dec-09 11:33N 34°56' E 139°18'212.0
2017-Dec-09 11:24N 34°57' E 139°20'511.9
2017-Dec-09 11:00N 34°60' E 139°25'510.9
2017-Dec-09 10:30N 35°03' E 139°31'611.8
2017-Dec-09 10:00N 35°05' E 139°37'612.6
2017-Dec-09 09:30N 35°09' E 139°43'612.2
2017-Dec-09 09:00N 35°15' E 139°46'612.4
2017-Dec-09 08:30N 35°20' E 139°42'611.5
2017-Dec-09 08:00N 35°26' E 139°45'612.5
2017-Dec-09 07:30N 35°30' E 139°51'912.7
2017-Dec-09 06:49N 35°36' E 139°57'5 1.2
2017-Dec-09 03:01N 35°41' E 139°59'0 0.0
2017-Dec-09 02:46N 35°41' E 139°59'1 2.3
2017-Dec-09 02:27N 35°40' E 139°60'1 0.3
2017-Dec-08 22:04N 35°41' E 139°59'0 0.0
2017-Dec-08 21:44N 35°41' E 139°59'0 0.0
2017-Dec-08 21:23N 35°41' E 139°59'0 0.0
2017-Dec-08 20:58N 35°41' E 139°59'0 0.0
2017-Dec-08 16:51N 35°41' E 139°59'0 0.0
2017-Dec-08 16:29N 35°41' E 139°59'0 0.0
2017-Dec-08 15:15N 35°41' E 139°59'0 0.0
2017-Dec-08 14:51N 35°41' E 139°59'0 0.0
2017-Dec-08 14:25N 35°41' E 139°59'0 0.0
2017-Dec-08 13:47N 35°41' E 139°59'0 0.0
2017-Dec-08 12:40N 35°41' E 139°59'0 0.0
2017-Dec-08 12:26N 35°41' E 139°59'0 0.0
2017-Dec-08 11:16N 35°41' E 139°59'0 0.0
2017-Dec-08 10:09N 35°41' E 139°59'0 0.0
2017-Dec-08 09:52N 35°41' E 139°59'3 1.2
2017-Dec-08 07:40N 35°38' E 139°59'3 0.7
2017-Dec-08 03:50N 35°40' E 139°57'0 0.1
2017-Dec-07 22:25N 35°40' E 139°57'3 2.9
2017-Dec-07 21:32N 35°38' E 139°59'0 0.0
2017-Dec-07 15:56N 35°38' E 139°59'4 7.6
2017-Dec-07 15:26N 35°34' E 139°56'510.8
2017-Dec-07 15:00N 35°30' E 139°53'611.6
2017-Dec-07 14:30N 35°26' E 139°48'611.4
2017-Dec-07 14:00N 35°21' E 139°45'510.2
2017-Dec-07 13:30N 35°16' E 139°46'510.9
2017-Dec-07 13:00N 35°11' E 139°47'612.2
2017-Dec-07 12:30N 35°05' E 139°44'612.7
2017-Dec-07 12:00N 35°01' E 139°38'1213.5
2017-Dec-07 11:07N 34°54' E 139°26'213.2
2017-Dec-07 11:00N 34°53' E 139°24'713.4
2017-Dec-07 10:30N 34°49' E 139°18'713.4
2017-Dec-07 10:00N 34°45' E 139°12'712.6
2017-Dec-07 09:30N 34°41' E 139°06'611.0
2017-Dec-07 08:57N 34°37' E 138°60'511.5
2017-Dec-07 08:30N 34°35' E 138°54'712.7
2017-Dec-07 07:58N 34°35' E 138°46'612.9
2017-Dec-07 07:29N 34°34' E 138°38'612.8
2017-Dec-07 06:59N 34°32' E 138°31'912.8
2017-Dec-07 06:15N 34°31' E 138°19'412.5
2017-Dec-07 05:58N 34°30' E 138°15'  
2017-Dec-04 10:29N 34°60' E 139°26'511.1
2017-Dec-04 10:00N 35°02' E 139°31'611.7
2017-Dec-04 09:30N 35°05' E 139°37'612.2
2017-Dec-04 09:00N 35°09' E 139°43'612.5
2017-Dec-04 08:30N 35°15' E 139°46'613.0
2017-Dec-04 08:00N 35°21' E 139°42'611.7
2017-Dec-04 07:30N 35°26' E 139°45'612.6
2017-Dec-04 07:00N 35°30' E 139°51'612.0
2017-Dec-04 06:28N 35°35' E 139°56'5 0.3
2017-Dec-03 10:20N 35°40' E 139°57'0 0.0
2017-Dec-03 09:49N 35°40' E 139°57'0 0.0
2017-Dec-03 04:26N 35°40' E 139°57'3 6.8
2017-Dec-03 03:59N 35°37' E 139°58'0 0.1
2017-Dec-03 03:24N 35°37' E 139°58'0 0.0
2017-Dec-03 03:00N 35°37' E 139°58'0 0.0
2017-Dec-03 01:13N 35°37' E 139°58'0 0.0
2017-Dec-03 00:55N 35°37' E 139°58'0 0.0
2017-Dec-03 00:13N 35°37' E 139°58'0 0.0
2017-Dec-02 23:58N 35°37' E 139°58'0 0.0
2017-Dec-02 23:28N 35°37' E 139°58'0 0.0
2017-Dec-02 22:46N 35°37' E 139°58'0 0.0
2017-Dec-02 22:19N 35°37' E 139°58'0 0.0
2017-Dec-02 21:58N 35°37' E 139°58'0 0.0
2017-Dec-02 21:28N 35°37' E 139°58'0 0.0
2017-Dec-02 20:58N 35°37' E 139°58'0 0.0
2017-Dec-02 20:13N 35°37' E 139°58'0 0.0
2017-Dec-02 19:58N 35°37' E 139°58'0 0.1
2017-Dec-02 19:19N 35°37' E 139°58'0 0.0
2017-Dec-02 18:55N 35°37' E 139°58'0 0.1
2017-Dec-02 18:28N 35°37' E 139°58'0 0.1
2017-Dec-02 17:43N 35°37' E 139°58'0 0.0
2017-Dec-02 17:10N 35°37' E 139°58'0 0.0
2017-Dec-02 16:55N 35°37' E 139°58'0 0.0
2017-Dec-02 16:22N 35°37' E 139°58'0 0.0
2017-Dec-02 15:58N 35°37' E 139°58'0 0.0
2017-Dec-02 15:28N 35°37' E 139°58'0 0.0
2017-Dec-02 14:40N 35°37' E 139°58'0 0.0
2017-Dec-02 14:22N 35°37' E 139°58'0 0.1
2017-Dec-02 13:42N 35°37' E 139°58'1 3.4
2017-Dec-02 13:30N 35°37' E 139°58'5 9.8
2017-Dec-02 13:00N 35°32' E 139°55'611.2
2017-Dec-02 12:30N 35°28' E 139°51'611.1
2017-Dec-02 12:00N 35°24' E 139°46'611.3
2017-Dec-02 11:31N 35°19' E 139°44'510.7
2017-Dec-02 11:00N 35°14' E 139°47'611.5
2017-Dec-02 10:30N 35°08' E 139°46'612.2
2017-Dec-02 10:00N 35°03' E 139°42'713.0
2017-Dec-02 09:30N 34°59' E 139°35'713.4
2017-Dec-02 08:59N 34°56' E 139°28'713.3
2017-Dec-02 08:29N 34°52' E 139°22'613.1
2017-Dec-02 08:00N 34°48' E 139°15'812.5
2017-Dec-02 07:20N 34°42' E 139°08'412.4
2017-Dec-02 07:00N 34°40' E 139°04'610.9
2017-Dec-02 06:28N 34°37' E 138°58'510.5
2017-Dec-02 06:00N 34°35' E 138°52'711.9
2017-Dec-02 05:25N 34°34' E 138°44'612.8
2017-Dec-02 04:55N 34°34' E 138°36'612.4
2017-Dec-02 04:24N 34°33' E 138°28'812.5
2017-Dec-02 03:43N 34°32' E 138°18'  
Track history (hours):
 
Tides and Currents Weather Stations Pressure Air Temp Water Temp Dewpoint Dewpoint Depression Visibility Wind Speed Wind Dir Waves Ship Positions

Shinsei

Last reported at 2017-Dec-11 12:06 UTC. Time now 2017-Dec-14 00:15 UTC.
Position N 34°26' E 134°26'.

Length 74 m; draft 5 m.

Type: Cargo ship. MMSI: 431005241.

Date/timePositionNaut miles runAvg speedWind from/ knotsBaromVisibWave heightAir tempDewpointWater temp
2017-Dec-11 12:06N 34°26' E 134°26'111.7
2017-Dec-11 12:00N 34°27' E 134°27'611.7
2017-Dec-11 11:30N 34°29' E 134°34'611.3
2017-Dec-11 11:00N 34°31' E 134°40'510.9
2017-Dec-11 10:30N 34°33' E 134°46'510.9
2017-Dec-11 10:00N 34°35' E 134°52'5 9.9
2017-Dec-11 09:31N 34°37' E 134°58'5 9.8
2017-Dec-11 09:01N 34°36' E 135°04'611.3
2017-Dec-11 08:31N 34°35' E 135°10'611.3
2017-Dec-11 08:00N 34°34' E 135°17'511.0
2017-Dec-11 07:31N 34°32' E 135°23'0 0.9
2017-Dec-11 07:00N 34°31' E 135°24'0 0.0
2017-Dec-11 06:30N 34°31' E 135°24'0 0.0
2017-Dec-11 06:00N 34°31' E 135°24'0 0.0
2017-Dec-11 05:31N 34°31' E 135°24'0 0.0
2017-Dec-11 05:00N 34°31' E 135°24'0 0.0
2017-Dec-11 04:31N 34°31' E 135°24'0 0.0
2017-Dec-11 04:00N 34°31' E 135°24'0 0.0
2017-Dec-11 03:31N 34°31' E 135°24'0 0.0
2017-Dec-11 03:01N 34°31' E 135°24'0 0.0
2017-Dec-11 02:30N 34°31' E 135°24'0 0.0
2017-Dec-11 02:00N 34°31' E 135°24'0 0.0
2017-Dec-11 01:31N 34°31' E 135°24'0 0.0
2017-Dec-11 01:01N 34°31' E 135°24'0 0.0
2017-Dec-11 00:30N 34°31' E 135°24'0 0.0
2017-Dec-11 00:00N 34°31' E 135°24'0 0.0
2017-Dec-10 23:30N 34°31' E 135°24'0 0.0
2017-Dec-10 23:00N 34°31' E 135°24'0 0.0
2017-Dec-10 22:30N 34°31' E 135°24'0 0.0
2017-Dec-10 22:00N 34°31' E 135°24'0 0.0
2017-Dec-10 21:31N 34°31' E 135°24'0 0.0
2017-Dec-10 21:01N 34°31' E 135°24'0 0.0
2017-Dec-10 20:31N 34°31' E 135°24'0 0.0
2017-Dec-10 20:01N 34°31' E 135°24'0 0.0
2017-Dec-10 19:31N 34°31' E 135°24'0 0.0
2017-Dec-10 19:00N 34°31' E 135°24'0 0.0
2017-Dec-10 18:30N 34°31' E 135°24'0 0.0
2017-Dec-10 18:01N 34°31' E 135°24'0 0.0
2017-Dec-10 17:30N 34°31' E 135°24'0 0.0
2017-Dec-10 17:00N 34°31' E 135°24'0 0.0
2017-Dec-10 16:31N 34°31' E 135°24'0 0.0
2017-Dec-10 16:00N 34°31' E 135°24'0 0.0
2017-Dec-10 15:30N 34°31' E 135°24'0 0.0
2017-Dec-10 15:00N 34°31' E 135°24'0 0.0
2017-Dec-10 14:30N 34°31' E 135°24'0 0.0
2017-Dec-10 14:00N 34°31' E 135°24'0 0.0
2017-Dec-10 13:30N 34°31' E 135°24'0 0.0
2017-Dec-10 13:00N 34°31' E 135°24'0 0.1
2017-Dec-10 12:31N 34°31' E 135°24'3 5.5
2017-Dec-10 12:00N 34°32' E 135°20'612.7
2017-Dec-10 11:30N 34°28' E 135°14'612.3
2017-Dec-10 11:00N 34°24' E 135°08'612.2
2017-Dec-10 10:30N 34°19' E 135°04'510.7
2017-Dec-10 10:00N 34°14' E 135°03'612.6
2017-Dec-10 09:30N 34°07' E 135°02'712.8
2017-Dec-10 09:00N 34°01' E 135°03'16410.3
2017-Dec-09 17:11N 34°34' E 138°16'1910.5
2017-Dec-09 15:22N 34°36' E 138°39'4 9.8
2017-Dec-09 14:57N 34°36' E 138°44'5 9.6
2017-Dec-09 14:27N 34°35' E 138°50'4 9.1
2017-Dec-09 14:00N 34°35' E 138°55'810.7
2017-Dec-09 13:17N 34°40' E 139°02'812.1
2017-Dec-09 12:37N 34°47' E 139°08'111.6
2017-Dec-09 12:29N 34°48' E 139°09'1112.2
2017-Dec-09 11:33N 34°56' E 139°18'212.0
2017-Dec-09 11:24N 34°57' E 139°20'511.9
2017-Dec-09 11:00N 34°60' E 139°25'510.9
2017-Dec-09 10:30N 35°03' E 139°31'611.8
2017-Dec-09 10:00N 35°05' E 139°37'612.6
2017-Dec-09 09:30N 35°09' E 139°43'612.2
2017-Dec-09 09:00N 35°15' E 139°46'612.4
2017-Dec-09 08:30N 35°20' E 139°42'611.5
2017-Dec-09 08:00N 35°26' E 139°45'612.5
2017-Dec-09 07:30N 35°30' E 139°51'912.7
2017-Dec-09 06:49N 35°36' E 139°57'5 1.2
2017-Dec-09 03:01N 35°41' E 139°59'0 0.0
2017-Dec-09 02:46N 35°41' E 139°59'1 2.3
2017-Dec-09 02:27N 35°40' E 139°60'1 0.3
2017-Dec-08 22:04N 35°41' E 139°59'0 0.0
2017-Dec-08 21:44N 35°41' E 139°59'0 0.0
2017-Dec-08 21:23N 35°41' E 139°59'0 0.0
2017-Dec-08 20:58N 35°41' E 139°59'0 0.0
2017-Dec-08 16:51N 35°41' E 139°59'0 0.0
2017-Dec-08 16:29N 35°41' E 139°59'0 0.0
2017-Dec-08 15:15N 35°41' E 139°59'0 0.0
2017-Dec-08 14:51N 35°41' E 139°59'0 0.0
2017-Dec-08 14:25N 35°41' E 139°59'0 0.0
2017-Dec-08 13:47N 35°41' E 139°59'0 0.0
2017-Dec-08 12:40N 35°41' E 139°59'0 0.0
2017-Dec-08 12:26N 35°41' E 139°59'0 0.0
2017-Dec-08 11:16N 35°41' E 139°59'0 0.0
2017-Dec-08 10:09N 35°41' E 139°59'0 0.0
2017-Dec-08 09:52N 35°41' E 139°59'3 1.2
2017-Dec-08 07:40N 35°38' E 139°59'3 0.7
2017-Dec-08 03:50N 35°40' E 139°57'0 0.1
2017-Dec-07 22:25N 35°40' E 139°57'3 2.9
2017-Dec-07 21:32N 35°38' E 139°59'0 0.0
2017-Dec-07 15:56N 35°38' E 139°59'4 7.6
2017-Dec-07 15:26N 35°34' E 139°56'510.8
2017-Dec-07 15:00N 35°30' E 139°53'611.6
2017-Dec-07 14:30N 35°26' E 139°48'611.4
2017-Dec-07 14:00N 35°21' E 139°45'510.2
2017-Dec-07 13:30N 35°16' E 139°46'510.9
2017-Dec-07 13:00N 35°11' E 139°47'612.2
2017-Dec-07 12:30N 35°05' E 139°44'612.7
2017-Dec-07 12:00N 35°01' E 139°38'1213.5
2017-Dec-07 11:07N 34°54' E 139°26'213.2
2017-Dec-07 11:00N 34°53' E 139°24'713.4
2017-Dec-07 10:30N 34°49' E 139°18'713.4
2017-Dec-07 10:00N 34°45' E 139°12'712.6
2017-Dec-07 09:30N 34°41' E 139°06'611.0
2017-Dec-07 08:57N 34°37' E 138°60'511.5
2017-Dec-07 08:30N 34°35' E 138°54'712.7
2017-Dec-07 07:58N 34°35' E 138°46'612.9
2017-Dec-07 07:29N 34°34' E 138°38'612.8
2017-Dec-07 06:59N 34°32' E 138°31'912.8
2017-Dec-07 06:15N 34°31' E 138°19'412.5
2017-Dec-07 05:58N 34°30' E 138°15'  
2017-Dec-04 10:29N 34°60' E 139°26'511.1
2017-Dec-04 10:00N 35°02' E 139°31'611.7
2017-Dec-04 09:30N 35°05' E 139°37'612.2
2017-Dec-04 09:00N 35°09' E 139°43'612.5
2017-Dec-04 08:30N 35°15' E 139°46'613.0
2017-Dec-04 08:00N 35°21' E 139°42'611.7
2017-Dec-04 07:30N 35°26' E 139°45'612.6
2017-Dec-04 07:00N 35°30' E 139°51'612.0
2017-Dec-04 06:28N 35°35' E 139°56'5 0.3
2017-Dec-03 10:20N 35°40' E 139°57'0 0.0
2017-Dec-03 09:49N 35°40' E 139°57'0 0.0
2017-Dec-03 04:26N 35°40' E 139°57'3 6.8
2017-Dec-03 03:59N 35°37' E 139°58'0 0.1
2017-Dec-03 03:24N 35°37' E 139°58'0 0.0
2017-Dec-03 03:00N 35°37' E 139°58'0 0.0
2017-Dec-03 01:13N 35°37' E 139°58'0 0.0
2017-Dec-03 00:55N 35°37' E 139°58'0 0.0
2017-Dec-03 00:13N 35°37' E 139°58'0 0.0
2017-Dec-02 23:58N 35°37' E 139°58'0 0.0
2017-Dec-02 23:28N 35°37' E 139°58'0 0.0
2017-Dec-02 22:46N 35°37' E 139°58'0 0.0
2017-Dec-02 22:19N 35°37' E 139°58'0 0.0
2017-Dec-02 21:58N 35°37' E 139°58'0 0.0
2017-Dec-02 21:28N 35°37' E 139°58'0 0.0
2017-Dec-02 20:58N 35°37' E 139°58'0 0.0
2017-Dec-02 20:13N 35°37' E 139°58'0 0.0
2017-Dec-02 19:58N 35°37' E 139°58'0 0.1
2017-Dec-02 19:19N 35°37' E 139°58'0 0.0
2017-Dec-02 18:55N 35°37' E 139°58'0 0.1
2017-Dec-02 18:28N 35°37' E 139°58'0 0.1
2017-Dec-02 17:43N 35°37' E 139°58'0 0.0
2017-Dec-02 17:10N 35°37' E 139°58'0 0.0
2017-Dec-02 16:55N 35°37' E 139°58'0 0.0
2017-Dec-02 16:22N 35°37' E 139°58'0 0.0
2017-Dec-02 15:58N 35°37' E 139°58'0 0.0
2017-Dec-02 15:28N 35°37' E 139°58'0 0.0
2017-Dec-02 14:40N 35°37' E 139°58'0 0.0
2017-Dec-02 14:22N 35°37' E 139°58'0 0.1
2017-Dec-02 13:42N 35°37' E 139°58'1 3.4
2017-Dec-02 13:30N 35°37' E 139°58'5 9.8
2017-Dec-02 13:00N 35°32' E 139°55'611.2
2017-Dec-02 12:30N 35°28' E 139°51'611.1
2017-Dec-02 12:00N 35°24' E 139°46'611.3
2017-Dec-02 11:31N 35°19' E 139°44'510.7
2017-Dec-02 11:00N 35°14' E 139°47'611.5
2017-Dec-02 10:30N 35°08' E 139°46'612.2
2017-Dec-02 10:00N 35°03' E 139°42'713.0
2017-Dec-02 09:30N 34°59' E 139°35'713.4
2017-Dec-02 08:59N 34°56' E 139°28'713.3
2017-Dec-02 08:29N 34°52' E 139°22'613.1
2017-Dec-02 08:00N 34°48' E 139°15'812.5
2017-Dec-02 07:20N 34°42' E 139°08'412.4
2017-Dec-02 07:00N 34°40' E 139°04'610.9
2017-Dec-02 06:28N 34°37' E 138°58'510.5
2017-Dec-02 06:00N 34°35' E 138°52'711.9
2017-Dec-02 05:25N 34°34' E 138°44'612.8
2017-Dec-02 04:55N 34°34' E 138°36'612.4
2017-Dec-02 04:24N 34°33' E 138°28'812.5
2017-Dec-02 03:43N 34°32' E 138°18'  

Dump ship's entire track history